createdAt,value
2022-09-16T00:02:06.585Z,77.78
2022-09-16T00:04:41.381Z,77.99
2022-09-16T00:07:14.804Z,78.05
2022-09-16T00:09:48.081Z,78.08
2022-09-16T00:12:21.577Z,78.15
2022-09-16T00:14:56.304Z,78.21
2022-09-16T00:17:31.203Z,78.24
2022-09-16T00:20:05.010Z,78.30
2022-09-16T00:22:38.415Z,78.33
2022-09-16T00:25:12.485Z,78.39
2022-09-16T00:27:45.911Z,78.43
2022-09-16T00:30:19.658Z,78.54
2022-09-16T00:32:54.263Z,78.66
2022-09-16T00:35:27.896Z,78.75
2022-09-16T00:38:01.259Z,78.79
2022-09-16T00:40:34.718Z,78.90
2022-09-16T00:43:11.423Z,79.01
2022-09-16T00:45:47.994Z,79.16
2022-09-16T00:48:25.178Z,79.18
2022-09-16T00:51:01.564Z,79.31
2022-09-16T00:53:42.721Z,79.39
2022-09-16T00:56:12.861Z,79.41
2022-09-16T00:58:48.926Z,79.34
2022-09-16T01:01:23.740Z,79.42
2022-09-16T01:03:59.759Z,79.50
2022-09-16T01:06:35.428Z,79.60
2022-09-16T01:09:08.869Z,79.59
2022-09-16T01:11:42.367Z,79.57
2022-09-16T01:14:34.518Z,79.48
2022-09-16T01:17:11.093Z,79.29
2022-09-16T01:19:55.374Z,79.36
2022-09-16T01:22:38.349Z,79.52
2022-09-16T01:25:16.060Z,79.60
2022-09-16T01:28:12.562Z,79.94
2022-09-16T01:30:59.460Z,79.94
2022-09-16T01:33:37.930Z,80.00
2022-09-16T01:36:19.656Z,80.13
2022-09-16T01:39:00.413Z,80.22
2022-09-16T01:41:36.703Z,80.37
2022-09-16T01:44:13.003Z,80.47
2022-09-16T01:46:49.300Z,80.53
2022-09-16T01:49:25.172Z,80.50
2022-09-16T01:52:01.387Z,80.52
2022-09-16T01:54:37.718Z,80.48
2022-09-16T01:57:14.488Z,80.45
2022-09-16T01:59:51.000Z,80.48
2022-09-16T02:02:27.350Z,80.45
2022-09-16T02:05:03.812Z,80.40
2022-09-16T02:07:40.106Z,80.44
2022-09-16T02:10:17.392Z,80.51
2022-09-16T02:12:53.653Z,80.60
2022-09-16T02:15:29.458Z,80.56
2022-09-16T02:18:11.990Z,80.56
2022-09-16T02:20:48.166Z,80.63
2022-09-16T02:23:24.440Z,80.65
2022-09-16T02:25:59.500Z,80.76
2022-09-16T02:28:36.210Z,80.74
2022-09-16T02:31:11.542Z,80.81
2022-09-16T02:33:47.691Z,80.74
2022-09-16T02:36:23.949Z,80.79
2022-09-16T02:39:00.301Z,80.73
2022-09-16T02:41:33.667Z,80.75
2022-09-16T02:44:07.194Z,80.79
2022-09-16T02:46:43.858Z,80.81
2022-09-16T02:49:20.474Z,80.74
2022-09-16T02:51:57.636Z,80.74
2022-09-16T02:54:36.643Z,80.66
2022-09-16T02:57:11.011Z,80.63
2022-09-16T02:59:45.703Z,80.67
2022-09-16T03:02:19.386Z,80.65
2022-09-16T03:04:52.818Z,80.65
2022-09-16T03:07:26.194Z,80.70
2022-09-16T03:10:00.222Z,80.70
2022-09-16T03:12:49.729Z,80.63
2022-09-16T03:15:34.336Z,80.58
2022-09-16T03:21:22.075Z,80.59
2022-09-16T03:24:00.576Z,80.47
2022-09-16T03:26:36.774Z,80.41
2022-09-16T03:29:15.980Z,80.40
2022-09-16T03:31:52.884Z,80.38
2022-09-16T03:34:30.012Z,80.37
2022-09-16T03:37:06.390Z,80.29
2022-09-16T03:39:40.680Z,80.16
2022-09-16T03:42:15.244Z,80.16
2022-09-16T03:44:48.600Z,80.07
2022-09-16T03:47:21.843Z,80.01
2022-09-16T03:49:55.631Z,79.99
2022-09-16T03:52:28.847Z,79.99
2022-09-16T03:55:01.948Z,79.92
2022-09-16T03:57:35.807Z,79.89
2022-09-16T04:00:19.366Z,79.83
2022-09-16T04:03:04.386Z,79.88
2022-09-16T04:05:37.646Z,79.88
2022-09-16T04:08:31.298Z,79.80
2022-09-16T04:11:06.598Z,79.85
2022-09-16T04:16:34.650Z,80.04
2022-09-16T04:19:14.035Z,79.92
2022-09-16T04:21:58.872Z,79.94
2022-09-16T04:24:36.676Z,79.92
2022-09-16T04:27:10.433Z,79.79
2022-09-16T04:29:43.594Z,79.67
2022-09-16T04:32:16.969Z,79.67
2022-09-16T04:34:50.219Z,79.59
2022-09-16T04:37:23.304Z,79.63
2022-09-16T04:39:58.950Z,79.69
2022-09-16T04:42:31.444Z,79.59
2022-09-16T04:45:04.899Z,79.55
2022-09-16T04:47:38.144Z,79.49
2022-09-16T04:50:12.436Z,79.53
2022-09-16T04:52:46.298Z,79.49
2022-09-16T04:55:23.145Z,79.36
2022-09-16T04:57:56.279Z,79.41
2022-09-16T05:00:29.485Z,79.36
2022-09-16T05:03:02.738Z,79.46
2022-09-16T05:05:36.189Z,79.48
2022-09-16T05:08:10.170Z,79.36
2022-09-16T05:10:43.460Z,79.37
2022-09-16T05:13:16.907Z,79.31
2022-09-16T05:15:51.237Z,79.35
2022-09-16T05:18:25.339Z,79.26
2022-09-16T05:21:01.361Z,79.20
2022-09-16T05:23:34.797Z,79.12
2022-09-16T05:26:12.982Z,79.06
2022-09-16T05:28:46.911Z,79.00
2022-09-16T05:31:22.437Z,78.93
2022-09-16T05:33:58.907Z,78.80
2022-09-16T05:36:33.695Z,78.75
2022-09-16T05:39:24.819Z,78.50
2022-09-16T05:41:42.989Z,78.45
2022-09-16T05:44:16.195Z,78.42
2022-09-16T05:46:50.560Z,78.54
2022-09-16T05:49:24.515Z,78.36
2022-09-16T05:51:57.659Z,78.30
2022-09-16T05:54:35.424Z,78.34
2022-09-16T05:57:08.888Z,78.20
2022-09-16T05:59:43.189Z,78.20
2022-09-16T06:02:16.769Z,78.11
2022-09-16T06:04:51.657Z,77.99
2022-09-16T06:07:25.760Z,77.90
2022-09-16T06:10:02.359Z,77.73
2022-09-16T06:12:38.055Z,77.71
2022-09-16T06:15:13.653Z,77.52
2022-09-16T06:17:47.916Z,77.39
2022-09-16T06:20:23.036Z,77.30
2022-09-16T06:22:56.220Z,77.30
2022-09-16T06:25:29.356Z,77.40
2022-09-16T06:28:02.297Z,77.26
2022-09-16T06:30:35.490Z,76.99
2022-09-16T06:33:10.800Z,76.73
2022-09-16T06:35:43.818Z,76.82
2022-09-16T06:38:16.693Z,76.73
2022-09-16T06:40:50.629Z,76.65
2022-09-16T06:43:23.512Z,76.73
2022-09-16T06:46:00.558Z,76.58
2022-09-16T06:48:35.129Z,76.41
2022-09-16T06:51:10.888Z,75.99
2022-09-16T06:53:45.176Z,75.76
2022-09-16T06:56:20.640Z,75.54
2022-09-16T06:58:56.016Z,75.80
2022-09-16T07:01:31.832Z,75.28
2022-09-16T07:04:08.326Z,75.23
2022-09-16T07:09:16.179Z,74.90
2022-09-16T07:11:49.035Z,74.55
2022-09-16T07:14:22.025Z,73.49
2022-09-16T07:16:55.324Z,73.45
2022-09-16T07:19:28.984Z,73.23
2022-09-16T07:22:02.138Z,72.87
2022-09-16T07:24:35.299Z,72.61
2022-09-16T07:27:08.618Z,72.77
2022-09-16T07:29:41.803Z,72.93
2022-09-16T07:32:15.727Z,73.01
2022-09-16T07:34:48.844Z,72.33
2022-09-16T07:37:22.210Z,72.75
2022-09-16T07:39:55.363Z,72.86
2022-09-16T07:42:30.367Z,72.68
2022-09-16T07:45:07.095Z,72.71
2022-09-16T07:47:40.259Z,72.31
2022-09-16T07:50:13.833Z,71.54
2022-09-16T07:52:47.197Z,69.63
2022-09-16T07:55:20.849Z,66.17
2022-09-16T07:57:55.487Z,62.87
2022-09-16T08:00:28.803Z,61.41
2022-09-16T08:03:02.067Z,59.44
2022-09-16T08:05:36.308Z,60.20
2022-09-16T08:08:09.487Z,56.60
2022-09-16T08:10:43.689Z,54.75
2022-09-16T08:13:16.828Z,55.81
2022-09-16T08:15:50.049Z,57.20
2022-09-16T08:18:23.589Z,57.84
2022-09-16T08:20:56.657Z,58.58
2022-09-16T08:23:31.437Z,59.29
2022-09-16T08:26:05.400Z,59.46
2022-09-16T08:28:50.880Z,58.69
2022-09-16T08:31:16.914Z,59.33
2022-09-16T08:33:50.137Z,58.97
2022-09-16T08:36:25.027Z,57.81
2022-09-16T08:38:59.534Z,55.69
2022-09-16T08:41:55.394Z,56.20
2022-09-16T08:44:33.347Z,56.67
2022-09-16T08:47:10.659Z,56.84
2022-09-16T08:49:46.737Z,56.60
2022-09-16T08:52:23.333Z,54.14
2022-09-16T08:54:59.947Z,54.02
2022-09-16T08:57:37.574Z,54.99
2022-09-16T09:00:16.761Z,56.66
2022-09-16T09:02:54.679Z,56.64
2022-09-16T09:05:33.180Z,56.22
2022-09-16T09:08:16.273Z,56.74
2022-09-16T09:10:53.653Z,57.53
2022-09-16T09:16:47.402Z,58.21
2022-09-16T09:19:32.465Z,58.22
2022-09-16T09:22:09.214Z,57.19
2022-09-16T09:24:56.773Z,57.72
2022-09-16T09:27:34.149Z,58.11
2022-09-16T09:30:14.267Z,58.33
2022-09-16T09:33:02.328Z,58.56
2022-09-16T09:35:50.683Z,59.11
2022-09-16T09:38:49.640Z,58.98
2022-09-16T09:44:35.933Z,59.26
2022-09-16T09:47:12.650Z,59.14
2022-09-16T09:49:48.221Z,58.85
2022-09-16T09:52:24.974Z,58.68
2022-09-16T09:55:00.146Z,57.97
2022-09-16T09:57:38.049Z,57.76
2022-09-16T10:00:18.481Z,56.84
2022-09-16T10:02:51.785Z,56.62
2022-09-16T10:05:27.487Z,55.93
2022-09-16T10:08:03.980Z,55.68
2022-09-16T10:10:39.657Z,55.26
2022-09-16T10:13:14.648Z,55.29
2022-09-16T10:15:53.316Z,55.67
2022-09-16T10:18:30.035Z,55.39
2022-09-16T10:21:07.936Z,55.49
2022-09-16T10:23:39.987Z,55.19
2022-09-16T10:26:24.613Z,54.84
2022-09-16T10:29:00.800Z,55.90
2022-09-16T10:31:38.337Z,56.44
2022-09-16T10:34:19.199Z,56.59
2022-09-16T10:37:01.731Z,57.02
2022-09-16T10:39:35.694Z,57.03
2022-09-16T10:42:18.610Z,57.06
2022-09-16T10:44:52.967Z,57.00
2022-09-16T10:47:29.657Z,56.92
2022-09-16T10:50:05.882Z,57.16
2022-09-16T10:52:46.072Z,56.65
2022-09-16T10:55:32.699Z,57.24
2022-09-16T10:58:15.225Z,57.05
2022-09-16T11:00:52.471Z,56.90
2022-09-16T11:04:05.313Z,56.94
2022-09-16T11:06:53.433Z,55.85
2022-09-16T11:09:31.898Z,56.59
2022-09-16T11:12:30.922Z,57.00
2022-09-16T11:15:07.854Z,56.89
2022-09-16T11:17:49.560Z,57.14
2022-09-16T11:21:02.371Z,56.90
2022-09-16T11:26:21.704Z,57.79
2022-09-16T11:29:09.771Z,58.18
2022-09-16T11:31:48.746Z,58.89
2022-09-16T11:34:29.513Z,59.36
2022-09-16T11:37:09.574Z,60.27
2022-09-16T11:39:54.300Z,61.78
2022-09-16T11:42:32.008Z,62.25
2022-09-16T11:45:18.322Z,62.39
2022-09-16T11:48:02.457Z,62.26
2022-09-16T11:50:44.063Z,62.12
2022-09-16T11:53:48.642Z,62.02
2022-09-16T11:56:25.208Z,62.13
2022-09-16T11:59:01.754Z,62.26
2022-09-16T12:01:38.563Z,62.62
2022-09-16T12:04:16.032Z,62.76
2022-09-16T12:06:55.099Z,62.77
2022-09-16T12:09:32.148Z,62.79
2022-09-16T12:12:12.834Z,62.76
2022-09-16T12:14:50.016Z,62.63
2022-09-16T12:17:26.415Z,62.49
2022-09-16T12:20:03.089Z,62.36
2022-09-16T12:22:39.972Z,62.20
2022-09-16T12:25:16.709Z,62.22
2022-09-16T12:27:53.104Z,62.11
2022-09-16T12:30:29.352Z,62.05
2022-09-16T12:33:07.547Z,61.99
2022-09-16T12:35:43.401Z,61.85
2022-09-16T12:38:20.074Z,62.18
2022-09-16T12:41:01.383Z,62.33
2022-09-16T12:44:11.180Z,62.45
2022-09-16T12:50:24.689Z,62.97
2022-09-16T12:53:21.113Z,63.39
2022-09-16T12:56:02.422Z,63.70
2022-09-16T12:58:58.513Z,63.83
2022-09-16T13:01:35.119Z,63.96
2022-09-16T13:04:12.806Z,64.22
2022-09-16T13:06:51.984Z,64.61
2022-09-16T13:09:27.652Z,65.03
2022-09-16T13:14:38.711Z,65.64
2022-09-16T13:17:13.950Z,66.13
2022-09-16T13:19:52.299Z,67.15
2022-09-16T13:22:28.414Z,67.70
2022-09-16T13:25:07.120Z,68.18
2022-09-16T13:27:44.282Z,68.88
2022-09-16T13:30:29.746Z,69.55
2022-09-16T13:33:30.388Z,69.64
2022-09-16T13:36:20.637Z,69.73
2022-09-16T13:38:56.105Z,69.64
2022-09-16T13:41:35.638Z,69.82
2022-09-16T13:47:15.670Z,70.35
2022-09-16T13:49:52.514Z,70.78
2022-09-16T13:52:28.347Z,71.30
2022-09-16T13:55:11.789Z,71.65
2022-09-16T13:57:59.349Z,72.20
2022-09-16T14:00:36.351Z,72.61
2022-09-16T14:03:29.153Z,73.37
2022-09-16T14:06:25.764Z,73.70
2022-09-16T14:09:02.742Z,74.03
2022-09-16T14:11:39.756Z,74.87
2022-09-16T14:14:36.344Z,75.06
2022-09-16T14:16:51.259Z,75.29
2022-09-16T14:19:28.516Z,75.37
2022-09-16T14:22:07.042Z,75.65
2022-09-16T14:24:42.458Z,76.27
2022-09-16T14:27:23.540Z,77.01
2022-09-16T14:30:01.974Z,77.64
2022-09-16T14:32:37.723Z,78.27
2022-09-16T14:35:14.812Z,78.64
2022-09-16T14:37:49.931Z,78.87
2022-09-16T14:40:25.797Z,79.08
2022-09-16T14:43:02.210Z,79.14
2022-09-16T14:45:37.131Z,79.37
2022-09-16T14:48:12.011Z,79.76
2022-09-16T14:50:47.546Z,80.06
2022-09-16T14:53:35.947Z,80.40
2022-09-16T14:59:16.363Z,80.42
2022-09-16T15:01:49.456Z,80.93
2022-09-16T15:04:25.918Z,81.06
2022-09-16T15:07:03.983Z,81.27
2022-09-16T15:09:40.352Z,81.53
2022-09-16T15:12:21.170Z,81.72
2022-09-16T15:14:54.471Z,81.91
2022-09-16T15:17:29.492Z,82.15
2022-09-16T15:20:03.234Z,82.10
2022-09-16T15:22:37.599Z,82.35
2022-09-16T15:25:23.894Z,82.30
2022-09-16T15:28:05.999Z,82.31
2022-09-16T15:30:41.895Z,82.34
2022-09-16T15:33:32.513Z,82.59
2022-09-16T15:36:07.685Z,82.62
2022-09-16T15:38:44.469Z,82.72
2022-09-16T15:41:16.264Z,82.74
2022-09-16T15:43:49.513Z,82.93
2022-09-16T15:46:24.975Z,83.19
2022-09-16T15:49:01.869Z,83.28
2022-09-16T15:51:38.274Z,83.44
2022-09-16T15:54:16.839Z,83.63
2022-09-16T15:56:59.136Z,83.67
2022-09-16T15:59:35.515Z,83.82
2022-09-16T16:02:11.771Z,83.98
2022-09-16T16:04:44.723Z,84.16
2022-09-16T16:07:25.280Z,84.47
2022-09-16T16:09:59.626Z,84.46
2022-09-16T16:12:33.668Z,84.48
2022-09-16T16:15:08.573Z,84.58
2022-09-16T16:17:43.026Z,84.79
2022-09-16T16:20:17.629Z,84.92
2022-09-16T16:22:51.399Z,85.10
2022-09-16T16:25:24.928Z,85.09
2022-09-16T16:27:58.237Z,85.12
2022-09-16T16:30:31.520Z,85.20
2022-09-16T16:33:06.037Z,85.32
2022-09-16T16:35:39.251Z,85.53
2022-09-16T16:38:12.605Z,85.47
2022-09-16T16:40:53.535Z,85.70
2022-09-16T16:43:27.257Z,85.72
2022-09-16T16:46:01.057Z,85.69
2022-09-16T16:48:34.347Z,85.75
2022-09-16T16:51:10.499Z,85.88
2022-09-16T16:53:43.576Z,85.82
2022-09-16T16:56:16.768Z,85.80
2022-09-16T16:58:49.846Z,85.79
2022-09-16T17:01:23.220Z,85.90
2022-09-16T17:03:56.520Z,86.08
2022-09-16T17:06:30.159Z,86.22
2022-09-16T17:09:03.763Z,86.44
2022-09-16T17:11:37.854Z,86.62
2022-09-16T17:14:12.160Z,86.61
2022-09-16T17:16:47.096Z,86.57
2022-09-16T17:19:21.170Z,86.75
2022-09-16T17:21:55.818Z,86.80
2022-09-16T17:24:28.705Z,86.60
2022-09-16T17:27:02.203Z,86.79
2022-09-16T17:29:35.074Z,86.85
2022-09-16T17:32:08.247Z,86.98
2022-09-16T17:34:41.610Z,86.94
2022-09-16T17:37:15.398Z,87.01
2022-09-16T17:39:49.773Z,86.96
2022-09-16T17:42:22.887Z,86.99
2022-09-16T17:44:55.830Z,87.10
2022-09-16T17:47:28.940Z,87.21
2022-09-16T17:50:04.246Z,87.18
2022-09-16T17:52:37.072Z,87.22
2022-09-16T17:55:11.041Z,87.25
2022-09-16T17:57:43.995Z,87.29
2022-09-16T18:00:19.093Z,87.31
2022-09-16T18:02:52.211Z,87.34
2022-09-16T18:05:30.081Z,87.48
2022-09-16T18:08:02.485Z,87.66
2022-09-16T18:10:35.460Z,87.72
2022-09-16T18:13:09.877Z,87.72
2022-09-16T18:15:42.989Z,87.64
2022-09-16T18:18:19.757Z,87.71
2022-09-16T18:20:57.016Z,87.71
2022-09-16T18:23:30.219Z,87.72
2022-09-16T18:26:07.716Z,87.79
2022-09-16T18:29:07.940Z,87.82
2022-09-16T18:31:23.272Z,87.89
2022-09-16T18:33:57.841Z,87.98
2022-09-16T18:36:32.898Z,88.06
2022-09-16T18:39:07.903Z,88.10
2022-09-16T18:41:42.609Z,88.16
2022-09-16T18:44:20.038Z,88.22
2022-09-16T18:46:53.597Z,88.22
2022-09-16T18:49:28.091Z,88.26
2022-09-16T18:52:01.703Z,88.34
2022-09-16T18:54:34.843Z,88.36
2022-09-16T18:57:09.406Z,88.49
2022-09-16T18:59:43.704Z,88.57
2022-09-16T19:02:16.844Z,88.61
2022-09-16T19:04:49.916Z,88.67
2022-09-16T19:07:28.092Z,88.77
2022-09-16T19:10:03.395Z,88.87
2022-09-16T19:12:39.240Z,88.99
2022-09-16T19:17:54.649Z,89.15
2022-09-16T19:20:27.725Z,89.07
2022-09-16T19:23:00.875Z,89.02
2022-09-16T19:25:33.956Z,89.03
2022-09-16T19:28:09.895Z,88.91
2022-09-16T19:30:43.229Z,88.87
2022-09-16T19:48:18.930Z,89.21
2022-09-16T19:50:54.397Z,89.32
2022-09-16T19:53:28.553Z,89.45
2022-09-16T19:56:04.282Z,89.50
2022-09-16T19:58:39.121Z,89.56
2022-09-16T20:01:15.026Z,89.61
2022-09-16T20:06:16.415Z,89.74
2022-09-16T20:08:51.445Z,89.75
2022-09-16T20:11:27.536Z,89.79
2022-09-16T20:14:02.043Z,89.82
2022-09-16T20:16:36.899Z,89.86
2022-09-16T20:19:14.742Z,89.91
2022-09-16T20:21:46.397Z,89.89
2022-09-16T20:24:21.452Z,89.75
2022-09-16T20:26:57.767Z,89.73
2022-09-16T20:29:32.082Z,89.82
2022-09-16T20:32:05.620Z,89.83
2022-09-16T20:34:38.801Z,89.89
2022-09-16T20:37:12.087Z,89.90
2022-09-16T20:39:45.850Z,89.98
2022-09-16T20:42:19.271Z,89.99
2022-09-16T20:44:52.165Z,90.03
2022-09-16T20:47:27.302Z,90.08
2022-09-16T20:50:00.339Z,90.12
2022-09-16T20:52:33.929Z,90.16
2022-09-16T20:55:11.787Z,90.19
2022-09-16T20:57:43.943Z,90.17
2022-09-16T21:00:18.108Z,90.16
2022-09-16T21:02:52.399Z,90.18
2022-09-16T21:05:25.334Z,90.18
2022-09-16T21:07:59.549Z,90.16
2022-09-16T21:10:33.735Z,90.19
2022-09-16T21:13:07.178Z,90.21
2022-09-16T21:15:40.175Z,90.26
2022-09-16T21:18:13.104Z,90.27
2022-09-16T21:20:45.922Z,90.28
2022-09-16T21:23:19.051Z,90.33
2022-09-16T21:25:52.063Z,90.28
2022-09-16T21:28:25.374Z,90.38
2022-09-16T21:31:02.880Z,90.50
2022-09-16T21:33:37.754Z,90.74
2022-09-16T21:36:12.947Z,90.82
2022-09-16T21:38:46.882Z,90.77
2022-09-16T21:41:22.308Z,90.81
2022-09-16T21:43:57.370Z,90.83
2022-09-16T21:46:32.684Z,90.71
2022-09-16T21:49:06.874Z,90.54
2022-09-16T21:51:41.361Z,90.51
2022-09-16T21:54:19.891Z,90.49
2022-09-16T21:56:51.999Z,90.54
2022-09-16T21:59:25.142Z,90.52
2022-09-16T22:02:03.517Z,90.57
2022-09-16T22:04:33.822Z,90.56
2022-09-16T22:07:09.010Z,90.57
2022-09-16T22:09:42.386Z,90.58
2022-09-16T22:12:15.530Z,90.59
2022-09-16T22:14:48.557Z,90.65
2022-09-16T22:17:21.968Z,90.65
2022-09-16T22:19:55.092Z,90.68
2022-09-16T22:22:28.810Z,90.69
2022-09-16T22:25:01.856Z,90.69
2022-09-16T22:27:34.962Z,90.71
2022-09-16T22:30:10.656Z,90.72
2022-09-16T22:32:43.744Z,90.70
2022-09-16T22:35:17.059Z,90.72
2022-09-16T22:37:51.645Z,90.73
2022-09-16T22:40:25.281Z,90.74
2022-09-16T22:42:59.419Z,90.74
2022-09-16T22:45:32.528Z,90.78
2022-09-16T22:48:06.066Z,90.78
2022-09-16T22:50:39.331Z,90.75
2022-09-16T22:53:12.667Z,90.75
2022-09-16T22:55:45.973Z,90.77
2022-09-16T22:58:19.116Z,90.79
2022-09-16T23:00:53.236Z,90.79
2022-09-16T23:03:26.449Z,90.76
2022-09-16T23:06:01.691Z,90.71
2022-09-16T23:08:37.143Z,90.70
2022-09-16T23:11:13.409Z,90.71
2022-09-16T23:13:49.049Z,90.69
2022-09-16T23:16:24.424Z,90.70
2022-09-16T23:18:59.718Z,90.71
2022-09-16T23:21:33.449Z,90.69
2022-09-16T23:24:08.743Z,90.62
2022-09-16T23:26:41.900Z,90.59
2022-09-16T23:29:15.995Z,90.55
2022-09-16T23:31:49.165Z,90.56
2022-09-16T23:34:23.701Z,90.56
2022-09-16T23:36:56.867Z,90.54
2022-09-16T23:39:30.381Z,90.53
2022-09-16T23:42:03.525Z,90.55
2022-09-16T23:44:36.610Z,90.52
2022-09-16T23:47:09.713Z,90.44
2022-09-16T23:49:43.463Z,90.43
2022-09-16T23:52:16.555Z,90.36
2022-09-16T23:54:49.629Z,90.31
2022-09-16T23:57:23.042Z,90.31
2022-09-16T23:59:56.271Z,90.33
